Latest Weather Observations for Douglas River

IDD60801

Issued at 1:31 pm CST Saturday 25 April 2015 (issued every 30 minutes, with the page automatically refreshed every 10 minutes)

About weather observations | Map of weather stations | Latest weather observations for NT | Other Formats
Station Details ID: 014901 Name: DOUGLAS RIVER Lat: -13.83 Lon: 131.19 Height: 42.8 m
Data from the previous 72 hours. | See also: Recent months at Douglas River
Date/Time
CST
Temp
°C
App
Temp
°C
Dew
Point
Rel
Hum
%
Delta-T
°C
Wind Press
QNH
hPa
Press
MSL
hPa
Rain
since 9 am
mm
Dir
 
Spd
km/h
Gust
km/h
Spd
kts
Gust
kts
25/01:30pm 34.3 29.0 3.0 14 16.2 E 20 32 11 17 1009.7 1009.4 0.0
25/01:00pm 34.1 28.3 2.5 13 16.2 E 22 35 12 19 1010.1 1009.8 0.0
25/12:30pm 34.8 28.7 3.0 13 16.5 ESE 24 35 13 19 1010.4 1010.1 0.0
25/12:00pm 33.7 27.7 3.1 14 15.8 ESE 24 37 13 20 1010.9 1010.6 0.0
25/11:30am 33.3 26.4 2.6 14 15.7 ESE 28 33 15 18 1011.4 1011.1 0.0
25/11:00am 33.2 27.3 3.8 15 15.3 ESE 24 32 13 17 1011.9 1011.6 0.0
25/10:30am 31.9 26.7 3.5 16 14.6 ESE 20 28 11 15 1012.1 1011.8 0.0
25/10:00am 30.4 25.5 3.9 18 13.6 ESE 19 26 10 14 1012.2 1011.9 0.0
25/09:30am 28.2 26.6 10.3 32 10.1 SE 9 13 5 7 1012.3 1012.0 0.0
25/09:25am 27.9 26.5 10.8 34 9.7 SSE 9 13 5 7 1012.1 - 0.0
25/09:00am 26.1 25.4 12.0 41 8.1 ESE 7 11 4 6 1012.1 1011.8 0.0
25/08:30am 22.8 23.8 13.1 54 5.6 CALM 0 0 0 0 1011.9 1011.6 0.0
25/08:00am 20.2 21.7 14.6 70 3.3 CALM 0 0 0 0 1011.8 1011.5 0.0
25/07:30am 18.6 20.4 15.4 81 1.9 CALM 0 0 0 0 1011.4 1011.1 0.0
25/07:00am 19.9 20.1 14.2 69 3.3 ENE 6 9 3 5 1011.0 1010.7 0.0
25/06:30am 20.1 20.2 14.4 69 3.3 ESE 7 11 4 6 1010.5 1010.2 0.0
25/06:00am 20.0 21.8 15.6 76 2.6 CALM 0 0 0 0 1010.4 1010.1 0.0
25/05:30am 21.0 23.0 16.0 73 3.0 CALM 0 0 0 0 1010.2 1009.9 0.0
25/05:00am 21.6 23.0 14.3 63 4.3 CALM 0 0 0 0 1010.3 1010.0 0.0
25/04:30am 21.6 23.2 15.0 66 3.9 CALM 0 0 0 0 1010.1 1009.8 0.0
25/04:00am 21.9 23.2 14.2 61 4.5 CALM 0 0 0 0 1010.0 1009.7 0.0
25/03:30am 21.9 22.2 14.4 62 4.4 NNE 6 7 3 4 1009.9 1009.6 0.0
25/03:00am 22.9 22.1 13.0 53 5.7 E 9 11 5 6 1010.0 1009.7 0.0
25/02:30am 22.4 22.9 14.0 59 4.9 ENE 4 9 2 5 1010.2 1009.9 0.0
25/02:00am 22.6 24.0 14.5 60 4.8 CALM 0 0 0 0 1010.4 1010.1 0.0
25/01:30am 22.6 24.1 14.7 61 4.7 CALM 0 0 0 0 1010.8 1010.5 0.0
25/01:00am 22.9 24.1 13.8 56 5.3 CALM 0 4 0 2 1011.0 1010.7 0.0
25/12:30am 22.4 24.4 15.9 66 3.9 CALM 0 0 0 0 1011.2 1010.9 0.0
25/12:00am 22.6 24.1 14.7 61 4.7 CALM 0 0 0 0 1011.4 1011.1 0.0
 
Date/Time
CST
Temp
°C
App
Temp
°C
Dew
Point
Rel
Hum
%
Delta-T
°C
Wind Press
QNH
hPa
Press
MSL
hPa
Rain
since 9 am
mm
Dir
 
Spd
km/h
Gust
km/h
Spd
kts
Gust
kts
24/11:30pm 23.3 24.7 14.3 57 5.3 CALM 0 4 0 2 1011.5 1011.2 0.0
24/11:00pm 23.6 22.9 13.3 52 6.0 ESE 9 9 5 5 1011.6 1011.3 0.0
24/10:30pm 23.2 22.8 14.0 56 5.4 SE 9 9 5 5 1011.7 1011.4 0.0
24/10:00pm 24.0 23.5 13.8 53 6.0 SE 9 9 5 5 1011.7 1011.4 0.0
24/09:30pm 24.5 23.9 13.6 50 6.4 SE 9 11 5 6 1011.5 1011.2 0.0
24/09:00pm 25.2 24.9 13.2 47 7.0 SE 7 9 4 5 1011.3 1011.0 0.0
24/08:30pm 25.1 25.3 14.1 50 6.5 SE 6 7 3 4 1010.8 1010.5 0.0
24/08:00pm 26.2 26.4 14.1 47 7.2 ESE 6 7 3 4 1010.3 1010.0 0.0
24/07:30pm 27.2 27.1 13.3 42 8.2 SSE 6 7 3 4 1009.7 1009.4 0.0
24/07:00pm 28.2 27.9 13.4 40 8.8 SSE 7 9 4 5 1009.3 1009.0 0.0
24/06:30pm 29.3 29.3 15.3 42 8.6 S 9 11 5 6 1009.0 1008.7 0.0
24/06:00pm 31.8 31.0 12.9 31 11.3 S 9 13 5 7 1008.8 1008.5 0.0
24/05:30pm 32.4 30.6 10.7 26 12.6 SSW 11 15 6 8 1008.5 1008.2 0.0
24/05:00pm 32.9 30.2 10.2 24 13.1 S 15 19 8 10 1008.4 1008.1 0.0
24/04:30pm 34.0 31.6 10.2 23 13.8 S 13 19 7 10 1008.2 1007.9 0.0
24/04:00pm 34.6 32.1 9.6 21 14.4 SSE 13 20 7 11 1008.1 1007.8 0.0
24/03:30pm 34.7 31.4 9.5 21 14.5 SSE 17 24 9 13 1008.0 1007.7 0.0
24/03:00pm 34.7 31.8 9.5 21 14.5 SSE 15 22 8 12 1008.2 1007.9 0.0
24/02:30pm 34.6 31.1 8.7 20 14.7 SSE 17 28 9 15 1008.4 1008.1 0.0
24/02:00pm 34.1 31.6 8.4 20 14.5 SSE 11 22 6 12 1008.7 1008.4 0.0
24/01:30pm 33.9 31.3 9.2 22 14.1 SE 13 20 7 11 1009.1 1008.8 0.0
24/01:00pm 33.1 30.7 10.0 24 13.3 SE 13 20 7 11 1009.6 1009.3 0.0
24/12:30pm 33.1 29.8 9.4 23 13.5 SSE 17 26 9 14 1010.2 1009.9 0.0
24/12:00pm 33.0 30.0 9.2 23 13.5 ESE 15 24 8 13 1010.5 1010.2 0.0
24/11:30am 32.1 28.0 7.9 22 13.4 ESE 19 24 10 13 1011.1 1010.8 0.0
24/11:00am 32.0 29.6 10.2 26 12.5 SE 13 22 7 12 1011.6 1011.3 0.0
24/10:30am 29.8 27.1 10.3 29 11.1 SE 15 22 8 12 1012.0 1011.7 0.0
24/10:00am 28.9 26.9 11.6 34 10.0 SE 13 19 7 10 1012.0 1011.7 0.0
24/09:30am 27.2 25.6 12.9 41 8.4 SSE 13 17 7 9 1012.1 1011.8 0.0
24/09:27am 27.2 25.7 13.1 41 8.3 SSE 13 20 7 11 1012.0 - 0.0
24/09:00am 25.9 23.7 12.2 42 7.9 SE 15 20 8 11 1012.3 1012.0 0.0
24/08:30am 22.2 24.0 16.4 69 3.5 ESE 2 7 1 4 1012.1 1011.8 0.0
24/08:00am 19.4 21.8 16.9 85 1.5 CALM 0 0 0 0 1011.8 1011.5 0.0
24/07:30am 18.8 20.9 16.3 85 1.5 CALM 0 6 0 3 1011.5 1011.2 0.0
24/07:00am 18.9 20.2 16.2 84 1.6 ENE 4 6 2 3 1011.2 1010.9 0.0
24/06:30am 19.0 19.6 15.8 82 1.9 ENE 7 9 4 5 1011.2 1010.9 0.0
24/06:00am 18.7 19.4 16.2 85 1.5 ENE 7 11 4 6 1011.0 1010.7 0.0
24/05:30am 19.2 20.6 16.5 84 1.6 ESE 4 7 2 4 1010.5 1010.2 0.0
24/05:00am 19.3 21.7 17.0 86 1.4 CALM 0 0 0 0 1010.2 1009.9 0.0
24/04:30am 19.6 21.2 17.0 85 1.6 S 4 6 2 3 1010.3 1010.0 0.0
24/04:00am 19.5 20.8 17.0 85 1.5 WSW 6 7 3 4 1010.2 1009.9 0.0
24/03:30am 19.4 20.6 16.8 85 1.6 W 6 7 3 4 1010.3 1010.0 0.0
24/03:00am 20.1 21.3 16.8 81 2.0 WSW 6 7 3 4 1010.2 1009.9 0.0
24/02:30am 21.3 23.1 16.5 74 2.9 N 2 6 1 3 1010.0 1009.7 0.0
24/02:00am 21.8 22.7 16.2 70 3.4 NW 6 7 3 4 1010.2 1009.9 0.0
24/01:30am 21.4 23.6 17.5 78 2.4 NNW 2 7 1 4 1010.4 1010.1 0.0
24/01:00am 21.4 24.2 17.9 80 2.2 CALM 0 0 0 0 1010.6 1010.3 0.0
24/12:30am 21.8 24.4 17.4 76 2.7 CALM 0 0 0 0 1010.8 1010.5 0.0
24/12:00am 23.2 23.9 15.6 62 4.6 NNE 6 7 3 4 1010.9 1010.6 0.0
 
Date/Time
CST
Temp
°C
App
Temp
°C
Dew
Point
Rel
Hum
%
Delta-T
°C
Wind Press
QNH
hPa
Press
MSL
hPa
Rain
since 9 am
mm
Dir
 
Spd
km/h
Gust
km/h
Spd
kts
Gust
kts
23/11:30pm 21.4 24.2 18.0 81 2.1 CALM 0 0 0 0 1011.2 1010.9 0.0
23/11:00pm 21.2 24.3 18.7 86 1.6 CALM 0 0 0 0 1011.2 1010.9 0.0
23/10:30pm 22.9 25.6 17.8 73 3.2 CALM 0 0 0 0 1011.0 1010.7 0.0
23/10:00pm 23.4 25.9 17.3 68 3.8 CALM 0 0 0 0 1011.1 1010.8 0.0
23/09:30pm 24.4 25.1 15.7 58 5.3 E 6 9 3 5 1011.2 1010.9 0.0
23/09:00pm 25.6 27.5 15.8 54 6.0 CALM 0 0 0 0 1010.9 1010.6 0.0
23/08:30pm 26.5 28.1 14.9 49 7.0 CALM 0 0 0 0 1010.6 1010.3 0.0
23/08:00pm 27.2 28.8 15.0 47 7.4 CALM 0 0 0 0 1010.2 1009.9 0.0
23/07:30pm 27.7 27.9 14.6 44 7.9 SSE 7 9 4 5 1009.8 1009.5 0.0
23/07:00pm 28.5 28.7 14.6 42 8.4 SSW 7 9 4 5 1009.7 1009.4 0.0
23/06:30pm 29.9 30.5 15.7 42 8.8 SSW 7 9 4 5 1009.5 1009.2 0.0
23/06:00pm 31.7 30.2 13.0 32 11.2 S 13 17 7 9 1009.2 1008.9 0.0
23/05:30pm 33.2 30.8 11.5 26 12.8 S 15 19 8 10 1008.8 1008.5 0.0
23/05:00pm 34.3 32.2 11.0 24 13.7 SSW 13 19 7 10 1008.5 1008.2 0.0
23/04:30pm 34.4 32.4 11.4 24 13.6 S 13 22 7 12 1008.1 1007.8 0.0
23/04:00pm 34.6 31.6 10.7 23 14.0 SSE 17 20 9 11 1007.9 1007.6 0.0
23/03:30pm 34.8 33.1 11.3 24 13.9 S 11 20 6 11 1007.8 1007.5 0.0
23/03:00pm 34.4 32.3 11.1 24 13.7 SSW 13 19 7 10 1008.0 1007.7 0.0
23/02:30pm 34.3 32.4 10.4 23 13.9 SE 11 19 6 10 1008.2 1007.9 0.0
23/02:00pm 34.2 31.7 9.7 22 14.1 SE 13 20 7 11 1008.7 1008.4 0.0
23/01:30pm 34.1 31.2 9.5 22 14.1 ESE 15 24 8 13 1008.9 1008.6 0.0
23/01:00pm 32.4 30.3 9.6 24 13.0 SE 11 19 6 10 1009.5 1009.2 0.0
23/12:30pm 32.0 29.2 8.6 23 13.1 ESE 13 22 7 12 1010.1 1009.8 0.0
23/12:00pm 31.6 28.3 7.9 23 13.1 ESE 15 24 8 13 1010.7 1010.4 0.0
23/11:30am 31.1 27.2 7.2 22 13.0 SE 17 26 9 14 1011.2 1010.9 0.0
23/11:00am 30.9 27.5 7.7 23 12.7 SE 15 22 8 12 1011.7 1011.4 0.0
23/10:30am 29.4 25.9 7.4 25 11.9 ESE 15 20 8 11 1012.0 1011.7 0.0
23/10:00am 28.3 25.5 8.4 28 10.9 SE 13 20 7 11 1012.2 1011.9 0.0
23/09:30am 26.8 23.1 8.1 30 10.1 ESE 17 22 9 12 1012.1 1011.8 0.0
23/09:00am 25.1 22.2 9.6 37 8.5 ESE 15 20 8 11 1012.0 1011.7 0.0
23/08:30am 23.3 22.0 11.1 46 6.8 SE 9 15 5 8 1011.8 1011.5 0.0
23/08:00am 21.5 20.6 12.7 57 5.0 ESE 9 13 5 7 1011.4 1011.1 0.0
23/07:30am 21.0 20.3 13.1 60 4.5 SE 9 11 5 6 1011.2 1010.9 0.0
23/07:00am 20.1 19.3 13.9 67 3.6 SE 11 15 6 8 1010.9 1010.6 0.0
23/06:30am 20.0 20.3 15.1 73 2.9 SE 7 9 4 5 1010.7 1010.4 0.0
23/06:00am 20.2 22.1 15.7 75 2.7 CALM 0 0 0 0 1010.6 1010.3 0.0
23/05:30am 19.8 22.1 16.8 83 1.8 CALM 0 0 0 0 1010.2 1009.9 0.0
23/05:00am 20.1 22.4 16.8 81 2.0 CALM 0 0 0 0 1010.2 1009.9 0.0
23/04:30am 20.0 21.6 17.0 83 1.8 NE 4 7 2 4 1010.0 1009.7 0.0
23/04:00am 20.0 21.3 17.0 83 1.8 ENE 6 9 3 5 1010.1 1009.8 0.0
23/03:30am 20.8 21.9 16.5 76 2.6 E 6 7 3 4 1010.0 1009.7 0.0
23/03:00am 20.6 22.8 16.6 78 2.4 CALM 0 6 0 3 1010.2 1009.9 0.0
23/02:30am 19.8 22.1 16.8 83 1.8 CALM 0 0 0 0 1010.3 1010.0 0.0
23/02:00am 19.9 22.1 16.6 81 2.0 CALM 0 2 0 1 1010.8 1010.5 0.0
23/01:30am 20.4 22.9 17.3 82 1.9 CALM 0 0 0 0 1011.3 1011.0 0.0
23/01:00am 20.1 22.7 17.5 85 1.6 CALM 0 0 0 0 1011.7 1011.4 0.0
23/12:30am 21.2 23.3 17.1 77 2.5 N 2 6 1 3 1012.0 1011.7 0.0
23/12:00am 21.1 23.5 18.0 82 1.9 NNE 2 7 1 4 1012.4 1012.1 0.0
 
Date/Time
CST
Temp
°C
App
Temp
°C
Dew
Point
Rel
Hum
%
Delta-T
°C
Wind Press
QNH
hPa
Press
MSL
hPa
Rain
since 9 am
mm
Dir
 
Spd
km/h
Gust
km/h
Spd
kts
Gust
kts
22/11:30pm 22.7 23.8 15.5 64 4.3 N 4 7 2 4 1012.6 1012.3 0.0
22/11:00pm 22.4 24.8 16.9 71 3.4 CALM 0 0 0 0 1012.8 1012.5 0.0
22/10:30pm 22.6 25.2 17.6 73 3.1 CALM 0 0 0 0 1012.9 1012.6 0.0
22/10:00pm 22.9 25.3 16.9 69 3.7 CALM 0 0 0 0 1012.9 1012.6 0.0
22/09:30pm 22.5 25.0 17.3 72 3.2 CALM 0 0 0 0 1013.2 1012.9 0.0
22/09:00pm 23.5 25.5 16.1 63 4.5 CALM 0 0 0 0 1012.8 1012.5 0.0
22/08:30pm 24.2 25.8 15.0 56 5.5 CALM 0 0 0 0 1012.6 1012.3 0.0
22/08:00pm 24.9 26.6 15.3 55 5.8 CALM 0 0 0 0 1012.3 1012.0 0.0
22/07:30pm 25.6 27.0 14.4 50 6.7 CALM 0 0 0 0 1011.8 1011.5 0.0
22/07:00pm 26.9 27.9 13.3 43 8.0 CALM 0 0 0 0 1011.7 1011.4 0.0
22/06:30pm 27.7 27.9 13.1 40 8.6 S 4 7 2 4 1011.4 1011.1 0.0
22/06:00pm 28.9 27.8 11.9 35 9.9 S 9 13 5 7 1011.1 1010.8 0.0
22/05:30pm 29.7 28.0 11.1 31 10.7 S 11 15 6 8 1010.9 1010.6 0.0
22/05:00pm 30.0 28.0 10.1 29 11.3 SSE 11 15 6 8 1010.5 1010.2 0.0
22/04:30pm 30.1 27.2 9.5 27 11.6 SE 15 19 8 10 1010.4 1010.1 0.0
22/04:00pm 30.3 27.2 8.7 26 12.0 SE 15 19 8 10 1010.3 1010.0 0.0
22/03:30pm 30.7 27.6 8.8 25 12.2 SSE 15 20 8 11 1010.1 1009.8 0.0
22/03:00pm 30.7 28.0 9.1 26 12.1 SE 13 20 7 11 1010.4 1010.1 0.0
22/02:30pm 30.7 27.2 8.8 25 12.2 SE 17 24 9 13 1010.6 1010.3 0.0
22/02:00pm 30.5 26.9 8.2 25 12.3 SE 17 28 9 15 1010.9 1010.6 0.0

Other Formats:

Comma delimited format used in spreadsheet applications
http://www.bom.gov.au/fwo/IDD60801/IDD60801.94128.axf

JavaScript Object Notation format (JSON) in row-major order
http://www.bom.gov.au/fwo/IDD60801/IDD60801.94128.json